sensor_id;sensor_type;location;lat;lon;timestamp;P1;durP1;ratioP1;P2;durP2;ratioP2
43552;SDS011;29153;42.696;23.218;2022-12-05T00:00:54;17.85;;;9.18;;
43552;SDS011;29153;42.696;23.218;2022-12-05T00:03:21;45.45;;;23.27;;
43552;SDS011;29153;42.696;23.218;2022-12-05T00:05:49;25.30;;;11.75;;
43552;SDS011;29153;42.696;23.218;2022-12-05T00:08:17;17.45;;;9.28;;
43552;SDS011;29153;42.696;23.218;2022-12-05T00:10:45;15.65;;;7.92;;
43552;SDS011;29153;42.696;23.218;2022-12-05T00:13:12;14.85;;;8.15;;
43552;SDS011;29153;42.696;23.218;2022-12-05T00:15:40;16.00;;;7.80;;
43552;SDS011;29153;42.696;23.218;2022-12-05T00:18:08;16.67;;;8.43;;
43552;SDS011;29153;42.696;23.218;2022-12-05T00:20:35;16.27;;;8.33;;
43552;SDS011;29153;42.696;23.218;2022-12-05T00:23:03;14.78;;;7.53;;
43552;SDS011;29153;42.696;23.218;2022-12-05T00:25:30;18.52;;;9.35;;
43552;SDS011;29153;42.696;23.218;2022-12-05T00:27:58;14.18;;;7.75;;
43552;SDS011;29153;42.696;23.218;2022-12-05T00:30:25;18.50;;;8.58;;
43552;SDS011;29153;42.696;23.218;2022-12-05T00:32:53;16.07;;;8.80;;
43552;SDS011;29153;42.696;23.218;2022-12-05T00:35:20;18.90;;;9.38;;
43552;SDS011;29153;42.696;23.218;2022-12-05T00:37:48;14.65;;;7.15;;
43552;SDS011;29153;42.696;23.218;2022-12-05T00:40:16;18.48;;;8.85;;
43552;SDS011;29153;42.696;23.218;2022-12-05T00:42:43;18.55;;;8.80;;
43552;SDS011;29153;42.696;23.218;2022-12-05T00:45:11;14.60;;;7.12;;
43552;SDS011;29153;42.696;23.218;2022-12-05T00:47:38;14.75;;;6.87;;
43552;SDS011;29153;42.696;23.218;2022-12-05T00:50:06;16.37;;;7.55;;
43552;SDS011;29153;42.696;23.218;2022-12-05T00:52:34;16.52;;;7.83;;
43552;SDS011;29153;42.696;23.218;2022-12-05T00:55:02;14.78;;;7.12;;
43552;SDS011;29153;42.696;23.218;2022-12-05T00:57:30;12.43;;;6.62;;
43552;SDS011;29153;42.696;23.218;2022-12-05T00:59:58;16.45;;;7.50;;
43552;SDS011;29153;42.696;23.218;2022-12-05T01:02:25;15.25;;;6.97;;
43552;SDS011;29153;42.696;23.218;2022-12-05T01:04:53;15.00;;;6.85;;
43552;SDS011;29153;42.696;23.218;2022-12-05T01:07:20;16.45;;;7.65;;
43552;SDS011;29153;42.696;23.218;2022-12-05T01:09:48;16.30;;;7.80;;
43552;SDS011;29153;42.696;23.218;2022-12-05T01:12:16;17.45;;;7.95;;
43552;SDS011;29153;42.696;23.218;2022-12-05T01:14:43;15.95;;;7.47;;
43552;SDS011;29153;42.696;23.218;2022-12-05T01:17:11;13.83;;;6.97;;
43552;SDS011;29153;42.696;23.218;2022-12-05T01:19:38;15.83;;;7.15;;
43552;SDS011;29153;42.696;23.218;2022-12-05T01:22:06;14.60;;;6.70;;
43552;SDS011;29153;42.696;23.218;2022-12-05T01:24:33;14.30;;;6.47;;
43552;SDS011;29153;42.696;23.218;2022-12-05T01:27:01;13.58;;;6.35;;
43552;SDS011;29153;42.696;23.218;2022-12-05T01:29:29;14.68;;;6.37;;
43552;SDS011;29153;42.696;23.218;2022-12-05T01:31:56;12.82;;;6.95;;
43552;SDS011;29153;42.696;23.218;2022-12-05T01:34:24;17.25;;;7.62;;
43552;SDS011;29153;42.696;23.218;2022-12-05T01:36:51;14.45;;;7.45;;
43552;SDS011;29153;42.696;23.218;2022-12-05T01:39:19;18.40;;;8.18;;
43552;SDS011;29153;42.696;23.218;2022-12-05T01:41:49;15.38;;;7.12;;
43552;SDS011;29153;42.696;23.218;2022-12-05T01:46:50;15.88;;;7.40;;
43552;SDS011;29153;42.696;23.218;2022-12-05T01:49:26;14.25;;;7.35;;
43552;SDS011;29153;42.696;23.218;2022-12-05T01:51:57;15.38;;;7.08;;
43552;SDS011;29153;42.696;23.218;2022-12-05T01:54:25;15.50;;;6.78;;
43552;SDS011;29153;42.696;23.218;2022-12-05T01:56:59;14.95;;;6.70;;
43552;SDS011;29153;42.696;23.218;2022-12-05T01:59:31;14.78;;;7.10;;
43552;SDS011;29153;42.696;23.218;2022-12-05T02:02:01;13.28;;;6.42;;
43552;SDS011;29153;42.696;23.218;2022-12-05T02:04:30;16.20;;;7.42;;
43552;SDS011;29153;42.696;23.218;2022-12-05T02:07:00;18.05;;;7.72;;
43552;SDS011;29153;42.696;23.218;2022-12-05T02:09:28;18.37;;;8.18;;
43552;SDS011;29153;42.696;23.218;2022-12-05T02:11:57;16.87;;;7.33;;
43552;SDS011;29153;42.696;23.218;2022-12-05T02:31:33;17.62;;;7.72;;
43552;SDS011;29153;42.696;23.218;2022-12-05T02:39:50;18.95;;;8.78;;
43552;SDS011;29153;42.696;23.218;2022-12-05T02:42:22;16.12;;;8.00;;
43552;SDS011;29153;42.696;23.218;2022-12-05T02:44:55;17.57;;;8.98;;
43552;SDS011;29153;42.696;23.218;2022-12-05T02:47:21;21.90;;;8.68;;
43552;SDS011;29153;42.696;23.218;2022-12-05T02:49:51;18.17;;;8.73;;
43552;SDS011;29153;42.696;23.218;2022-12-05T02:52:21;19.70;;;8.03;;
43552;SDS011;29153;42.696;23.218;2022-12-05T02:54:50;17.90;;;8.23;;
43552;SDS011;29153;42.696;23.218;2022-12-05T02:57:21;15.70;;;7.45;;
43552;SDS011;29153;42.696;23.218;2022-12-05T02:59:49;17.75;;;8.33;;
43552;SDS011;29153;42.696;23.218;2022-12-05T03:02:24;18.37;;;8.53;;
43552;SDS011;29153;42.696;23.218;2022-12-05T03:04:54;21.10;;;9.43;;
43552;SDS011;29153;42.696;23.218;2022-12-05T03:07:23;19.50;;;8.25;;
43552;SDS011;29153;42.696;23.218;2022-12-05T03:09:55;19.77;;;7.80;;
43552;SDS011;29153;42.696;23.218;2022-12-05T03:12:31;17.73;;;8.38;;
43552;SDS011;29153;42.696;23.218;2022-12-05T03:17:40;19.70;;;8.30;;
43552;SDS011;29153;42.696;23.218;2022-12-05T03:20:21;20.43;;;9.68;;
43552;SDS011;29153;42.696;23.218;2022-12-05T03:22:53;18.55;;;8.20;;
43552;SDS011;29153;42.696;23.218;2022-12-05T03:25:24;19.77;;;8.43;;
43552;SDS011;29153;42.696;23.218;2022-12-05T03:30:51;16.80;;;7.85;;
43552;SDS011;29153;42.696;23.218;2022-12-05T03:33:25;17.92;;;7.12;;
43552;SDS011;29153;42.696;23.218;2022-12-05T03:41:29;18.80;;;8.13;;
43552;SDS011;29153;42.696;23.218;2022-12-05T03:44:01;19.55;;;8.10;;
43552;SDS011;29153;42.696;23.218;2022-12-05T03:46:51;18.70;;;8.68;;
43552;SDS011;29153;42.696;23.218;2022-12-05T03:49:32;16.37;;;7.03;;
43552;SDS011;29153;42.696;23.218;2022-12-05T03:52:06;23.45;;;11.15;;
43552;SDS011;29153;42.696;23.218;2022-12-05T03:54:42;24.92;;;12.80;;
43552;SDS011;29153;42.696;23.218;2022-12-05T03:57:16;20.60;;;10.15;;
43552;SDS011;29153;42.696;23.218;2022-12-05T04:00:08;25.00;;;11.95;;
43552;SDS011;29153;42.696;23.218;2022-12-05T04:02:35;22.17;;;11.88;;
43552;SDS011;29153;42.696;23.218;2022-12-05T04:05:29;24.27;;;13.32;;
43552;SDS011;29153;42.696;23.218;2022-12-05T04:07:54;23.05;;;12.05;;
43552;SDS011;29153;42.696;23.218;2022-12-05T04:10:23;20.12;;;9.65;;
43552;SDS011;29153;42.696;23.218;2022-12-05T04:12:56;23.65;;;13.50;;
43552;SDS011;29153;42.696;23.218;2022-12-05T04:15:28;24.00;;;13.80;;
43552;SDS011;29153;42.696;23.218;2022-12-05T04:17:59;26.33;;;15.43;;
43552;SDS011;29153;42.696;23.218;2022-12-05T04:20:34;23.32;;;11.80;;
43552;SDS011;29153;42.696;23.218;2022-12-05T04:23:21;22.30;;;11.08;;
43552;SDS011;29153;42.696;23.218;2022-12-05T04:28:41;21.17;;;10.53;;
43552;SDS011;29153;42.696;23.218;2022-12-05T04:31:06;23.83;;;10.85;;
43552;SDS011;29153;42.696;23.218;2022-12-05T04:36:30;39.35;;;14.05;;
43552;SDS011;29153;42.696;23.218;2022-12-05T04:39:24;32.93;;;13.53;;
43552;SDS011;29153;42.696;23.218;2022-12-05T04:41:57;31.62;;;13.00;;
43552;SDS011;29153;42.696;23.218;2022-12-05T04:44:32;21.45;;;9.55;;
43552;SDS011;29153;42.696;23.218;2022-12-05T04:47:00;34.05;;;13.53;;
43552;SDS011;29153;42.696;23.218;2022-12-05T04:49:31;33.45;;;13.18;;
43552;SDS011;29153;42.696;23.218;2022-12-05T04:52:02;32.93;;;14.65;;
43552;SDS011;29153;42.696;23.218;2022-12-05T04:54:35;26.00;;;12.15;;
43552;SDS011;29153;42.696;23.218;2022-12-05T04:57:07;25.02;;;10.60;;
43552;SDS011;29153;42.696;23.218;2022-12-05T04:59:37;17.80;;;7.03;;
43552;SDS011;29153;42.696;23.218;2022-12-05T05:02:08;16.87;;;7.92;;
43552;SDS011;29153;42.696;23.218;2022-12-05T05:04:42;28.65;;;12.75;;
43552;SDS011;29153;42.696;23.218;2022-12-05T05:07:08;22.02;;;10.43;;
43552;SDS011;29153;42.696;23.218;2022-12-05T05:09:38;24.35;;;10.93;;
43552;SDS011;29153;42.696;23.218;2022-12-05T05:12:06;21.52;;;9.13;;
43552;SDS011;29153;42.696;23.218;2022-12-05T05:14:33;21.00;;;9.13;;
43552;SDS011;29153;42.696;23.218;2022-12-05T05:17:01;18.05;;;9.03;;
43552;SDS011;29153;42.696;23.218;2022-12-05T05:19:29;20.02;;;10.35;;
43552;SDS011;29153;42.696;23.218;2022-12-05T05:21:56;19.77;;;9.13;;
43552;SDS011;29153;42.696;23.218;2022-12-05T05:24:25;20.97;;;9.55;;
43552;SDS011;29153;42.696;23.218;2022-12-05T05:26:52;18.75;;;8.45;;
43552;SDS011;29153;42.696;23.218;2022-12-05T05:29:20;18.40;;;8.95;;
43552;SDS011;29153;42.696;23.218;2022-12-05T05:31:47;20.35;;;8.80;;
43552;SDS011;29153;42.696;23.218;2022-12-05T05:34:15;18.82;;;8.63;;
43552;SDS011;29153;42.696;23.218;2022-12-05T05:36:42;18.50;;;8.38;;
43552;SDS011;29153;42.696;23.218;2022-12-05T05:39:13;21.25;;;9.40;;
43552;SDS011;29153;42.696;23.218;2022-12-05T05:41:41;20.15;;;8.70;;
43552;SDS011;29153;42.696;23.218;2022-12-05T05:44:09;16.97;;;8.10;;
43552;SDS011;29153;42.696;23.218;2022-12-05T05:46:36;20.27;;;7.67;;
43552;SDS011;29153;42.696;23.218;2022-12-05T05:49:04;18.42;;;8.33;;
43552;SDS011;29153;42.696;23.218;2022-12-05T05:51:32;16.23;;;7.62;;
43552;SDS011;29153;42.696;23.218;2022-12-05T05:53:59;19.75;;;8.18;;
43552;SDS011;29153;42.696;23.218;2022-12-05T05:56:27;14.75;;;7.92;;
43552;SDS011;29153;42.696;23.218;2022-12-05T05:59:00;18.52;;;8.43;;
43552;SDS011;29153;42.696;23.218;2022-12-05T06:01:26;17.73;;;7.60;;
43552;SDS011;29153;42.696;23.218;2022-12-05T06:03:54;19.12;;;8.13;;
43552;SDS011;29153;42.696;23.218;2022-12-05T06:06:22;21.80;;;8.90;;
43552;SDS011;29153;42.696;23.218;2022-12-05T06:08:50;21.95;;;8.13;;
43552;SDS011;29153;42.696;23.218;2022-12-05T06:11:20;18.75;;;8.58;;
43552;SDS011;29153;42.696;23.218;2022-12-05T06:13:49;23.90;;;10.45;;
43552;SDS011;29153;42.696;23.218;2022-12-05T06:16:18;24.35;;;10.48;;
43552;SDS011;29153;42.696;23.218;2022-12-05T06:18:46;24.18;;;10.18;;
43552;SDS011;29153;42.696;23.218;2022-12-05T06:21:14;20.50;;;10.85;;
43552;SDS011;29153;42.696;23.218;2022-12-05T06:23:42;21.40;;;9.78;;
43552;SDS011;29153;42.696;23.218;2022-12-05T06:26:11;22.25;;;9.70;;
43552;SDS011;29153;42.696;23.218;2022-12-05T06:28:40;21.25;;;10.88;;
43552;SDS011;29153;42.696;23.218;2022-12-05T06:31:09;21.12;;;10.72;;
43552;SDS011;29153;42.696;23.218;2022-12-05T06:33:39;26.35;;;11.28;;
43552;SDS011;29153;42.696;23.218;2022-12-05T06:36:08;22.82;;;10.03;;
43552;SDS011;29153;42.696;23.218;2022-12-05T06:38:37;19.30;;;9.53;;
43552;SDS011;29153;42.696;23.218;2022-12-05T06:41:05;24.40;;;10.08;;
43552;SDS011;29153;42.696;23.218;2022-12-05T06:43:34;23.10;;;11.53;;
43552;SDS011;29153;42.696;23.218;2022-12-05T06:46:05;24.40;;;10.65;;
43552;SDS011;29153;42.696;23.218;2022-12-05T06:48:35;22.52;;;10.08;;
43552;SDS011;29153;42.696;23.218;2022-12-05T06:51:03;27.15;;;13.18;;
43552;SDS011;29153;42.696;23.218;2022-12-05T06:53:31;30.35;;;13.50;;
43552;SDS011;29153;42.696;23.218;2022-12-05T06:56:00;21.75;;;9.58;;
43552;SDS011;29153;42.696;23.218;2022-12-05T06:58:30;19.77;;;9.55;;
43552;SDS011;29153;42.696;23.218;2022-12-05T07:00:57;19.23;;;9.10;;
43552;SDS011;29153;42.696;23.218;2022-12-05T07:03:43;28.85;;;10.98;;
43552;SDS011;29153;42.696;23.218;2022-12-05T07:06:12;20.62;;;9.43;;
43552;SDS011;29153;42.696;23.218;2022-12-05T07:08:40;25.45;;;10.30;;
43552;SDS011;29153;42.696;23.218;2022-12-05T07:11:09;19.80;;;8.48;;
43552;SDS011;29153;42.696;23.218;2022-12-05T07:13:37;18.92;;;8.65;;
43552;SDS011;29153;42.696;23.218;2022-12-05T07:16:04;22.62;;;10.03;;
43552;SDS011;29153;42.696;23.218;2022-12-05T07:18:33;19.17;;;8.28;;
43552;SDS011;29153;42.696;23.218;2022-12-05T07:21:03;15.98;;;8.78;;
43552;SDS011;29153;42.696;23.218;2022-12-05T07:23:32;21.95;;;9.25;;
43552;SDS011;29153;42.696;23.218;2022-12-05T07:26:03;18.73;;;9.70;;
43552;SDS011;29153;42.696;23.218;2022-12-05T07:28:33;21.12;;;9.10;;
43552;SDS011;29153;42.696;23.218;2022-12-05T07:31:02;20.92;;;10.53;;
43552;SDS011;29153;42.696;23.218;2022-12-05T07:33:32;16.93;;;8.98;;
43552;SDS011;29153;42.696;23.218;2022-12-05T07:36:04;20.45;;;8.93;;
43552;SDS011;29153;42.696;23.218;2022-12-05T07:38:34;18.57;;;9.20;;
43552;SDS011;29153;42.696;23.218;2022-12-05T07:41:17;18.60;;;8.83;;
43552;SDS011;29153;42.696;23.218;2022-12-05T07:43:44;16.80;;;8.00;;
43552;SDS011;29153;42.696;23.218;2022-12-05T07:46:12;87.65;;;39.23;;
43552;SDS011;29153;42.696;23.218;2022-12-05T07:48:39;22.42;;;10.03;;
43552;SDS011;29153;42.696;23.218;2022-12-05T07:51:07;29.65;;;10.85;;
43552;SDS011;29153;42.696;23.218;2022-12-05T07:53:36;22.50;;;10.18;;
43552;SDS011;29153;42.696;23.218;2022-12-05T07:56:07;23.32;;;11.93;;
43552;SDS011;29153;42.696;23.218;2022-12-05T07:58:35;28.95;;;13.43;;
43552;SDS011;29153;42.696;23.218;2022-12-05T08:01:22;25.30;;;13.90;;
43552;SDS011;29153;42.696;23.218;2022-12-05T08:03:39;23.70;;;11.43;;
43552;SDS011;29153;42.696;23.218;2022-12-05T08:06:08;26.70;;;11.60;;
43552;SDS011;29153;42.696;23.218;2022-12-05T08:08:38;23.35;;;10.00;;
43552;SDS011;29153;42.696;23.218;2022-12-05T08:11:13;17.77;;;9.08;;
43552;SDS011;29153;42.696;23.218;2022-12-05T08:13:42;22.30;;;10.93;;
43552;SDS011;29153;42.696;23.218;2022-12-05T08:16:11;24.27;;;11.75;;
43552;SDS011;29153;42.696;23.218;2022-12-05T08:18:41;20.12;;;9.43;;
43552;SDS011;29153;42.696;23.218;2022-12-05T08:21:14;18.77;;;9.10;;
43552;SDS011;29153;42.696;23.218;2022-12-05T08:23:39;19.92;;;9.53;;
43552;SDS011;29153;42.696;23.218;2022-12-05T08:26:12;18.67;;;8.65;;
43552;SDS011;29153;42.696;23.218;2022-12-05T08:28:42;19.70;;;8.55;;
43552;SDS011;29153;42.696;23.218;2022-12-05T08:31:11;16.20;;;7.47;;
43552;SDS011;29153;42.696;23.218;2022-12-05T08:33:41;19.32;;;7.83;;
43552;SDS011;29153;42.696;23.218;2022-12-05T08:36:10;16.45;;;8.10;;
43552;SDS011;29153;42.696;23.218;2022-12-05T08:38:43;21.55;;;8.68;;
43552;SDS011;29153;42.696;23.218;2022-12-05T08:41:16;19.95;;;11.38;;
43552;SDS011;29153;42.696;23.218;2022-12-05T08:43:43;19.17;;;8.40;;
43552;SDS011;29153;42.696;23.218;2022-12-05T08:46:11;22.35;;;12.28;;
43552;SDS011;29153;42.696;23.218;2022-12-05T08:48:39;21.00;;;10.35;;
43552;SDS011;29153;42.696;23.218;2022-12-05T08:51:07;17.12;;;7.92;;
43552;SDS011;29153;42.696;23.218;2022-12-05T08:53:37;16.07;;;7.78;;
43552;SDS011;29153;42.696;23.218;2022-12-05T08:56:06;17.60;;;8.18;;
43552;SDS011;29153;42.696;23.218;2022-12-05T08:58:35;18.87;;;9.70;;
43552;SDS011;29153;42.696;23.218;2022-12-05T09:01:13;20.88;;;10.60;;
43552;SDS011;29153;42.696;23.218;2022-12-05T09:03:43;17.15;;;8.23;;
43552;SDS011;29153;42.696;23.218;2022-12-05T09:08:45;15.13;;;6.75;;
43552;SDS011;29153;42.696;23.218;2022-12-05T09:11:14;15.20;;;7.78;;
43552;SDS011;29153;42.696;23.218;2022-12-05T09:13:44;15.95;;;8.25;;
43552;SDS011;29153;42.696;23.218;2022-12-05T09:16:25;15.63;;;8.10;;
43552;SDS011;29153;42.696;23.218;2022-12-05T09:18:49;15.60;;;7.00;;
43552;SDS011;29153;42.696;23.218;2022-12-05T09:21:18;19.67;;;9.28;;
43552;SDS011;29153;42.696;23.218;2022-12-05T09:23:47;18.95;;;9.70;;
43552;SDS011;29153;42.696;23.218;2022-12-05T09:26:17;18.05;;;10.08;;
43552;SDS011;29153;42.696;23.218;2022-12-05T09:28:47;18.42;;;8.68;;
43552;SDS011;29153;42.696;23.218;2022-12-05T09:31:16;18.90;;;9.93;;
43552;SDS011;29153;42.696;23.218;2022-12-05T09:33:45;17.85;;;9.63;;
43552;SDS011;29153;42.696;23.218;2022-12-05T09:36:24;19.12;;;9.93;;
43552;SDS011;29153;42.696;23.218;2022-12-05T09:38:55;15.35;;;8.23;;
43552;SDS011;29153;42.696;23.218;2022-12-05T09:44:40;14.65;;;6.25;;
43552;SDS011;29153;42.696;23.218;2022-12-05T09:47:33;16.23;;;8.58;;
43552;SDS011;29153;42.696;23.218;2022-12-05T09:55:48;16.27;;;7.97;;
43552;SDS011;29153;42.696;23.218;2022-12-05T10:01:15;20.20;;;9.35;;
43552;SDS011;29153;42.696;23.218;2022-12-05T10:03:44;18.82;;;8.68;;
43552;SDS011;29153;42.696;23.218;2022-12-05T10:11:46;31.30;;;14.45;;
43552;SDS011;29153;42.696;23.218;2022-12-05T10:16:57;22.07;;;11.48;;
43552;SDS011;29153;42.696;23.218;2022-12-05T10:19:34;22.35;;;11.22;;
43552;SDS011;29153;42.696;23.218;2022-12-05T10:22:16;23.02;;;11.10;;
43552;SDS011;29153;42.696;23.218;2022-12-05T10:25:01;14.65;;;7.30;;
43552;SDS011;29153;42.696;23.218;2022-12-05T10:27:37;15.38;;;8.25;;
43552;SDS011;29153;42.696;23.218;2022-12-05T10:35:20;17.15;;;9.80;;
43552;SDS011;29153;42.696;23.218;2022-12-05T10:37:53;13.75;;;7.80;;
43552;SDS011;29153;42.696;23.218;2022-12-05T10:40:26;12.73;;;5.72;;
43552;SDS011;29153;42.696;23.218;2022-12-05T10:42:58;13.50;;;6.50;;
43552;SDS011;29153;42.696;23.218;2022-12-05T10:45:26;13.83;;;6.62;;
43552;SDS011;29153;42.696;23.218;2022-12-05T10:47:54;25.48;;;12.70;;
43552;SDS011;29153;42.696;23.218;2022-12-05T10:50:30;23.20;;;12.60;;
43552;SDS011;29153;42.696;23.218;2022-12-05T10:52:59;16.62;;;8.65;;
43552;SDS011;29153;42.696;23.218;2022-12-05T10:55:30;14.50;;;7.25;;
43552;SDS011;29153;42.696;23.218;2022-12-05T10:58:10;23.25;;;11.28;;
43552;SDS011;29153;42.696;23.218;2022-12-05T11:00:58;17.85;;;7.03;;
43552;SDS011;29153;42.696;23.218;2022-12-05T11:03:35;12.33;;;6.65;;
43552;SDS011;29153;42.696;23.218;2022-12-05T11:06:14;12.98;;;6.35;;
43552;SDS011;29153;42.696;23.218;2022-12-05T11:09:34;17.32;;;9.28;;
43552;SDS011;29153;42.696;23.218;2022-12-05T11:11:28;16.37;;;9.03;;
43552;SDS011;29153;42.696;23.218;2022-12-05T11:16:34;23.42;;;12.15;;
43552;SDS011;29153;42.696;23.218;2022-12-05T11:22:00;23.47;;;11.20;;
43552;SDS011;29153;42.696;23.218;2022-12-05T11:24:32;19.40;;;10.50;;
43552;SDS011;29153;42.696;23.218;2022-12-05T11:29:53;20.88;;;11.03;;
43552;SDS011;29153;42.696;23.218;2022-12-05T11:32:31;22.40;;;11.68;;
43552;SDS011;29153;42.696;23.218;2022-12-05T11:35:06;16.62;;;8.38;;
43552;SDS011;29153;42.696;23.218;2022-12-05T11:37:57;15.80;;;7.40;;
43552;SDS011;29153;42.696;23.218;2022-12-05T11:40:56;18.40;;;8.85;;
43552;SDS011;29153;42.696;23.218;2022-12-05T11:45:31;20.85;;;9.75;;
43552;SDS011;29153;42.696;23.218;2022-12-05T11:48:08;21.12;;;9.15;;
43552;SDS011;29153;42.696;23.218;2022-12-05T11:56:30;17.45;;;9.50;;
43552;SDS011;29153;42.696;23.218;2022-12-05T12:01:54;28.75;;;13.15;;
43552;SDS011;29153;42.696;23.218;2022-12-05T12:10:20;25.80;;;10.90;;
43552;SDS011;29153;42.696;23.218;2022-12-05T12:12:25;38.85;;;15.45;;
43552;SDS011;29153;42.696;23.218;2022-12-05T12:17:55;24.47;;;12.58;;
43552;SDS011;29153;42.696;23.218;2022-12-05T12:20:26;30.97;;;13.60;;
43552;SDS011;29153;42.696;23.218;2022-12-05T12:25:58;32.03;;;16.05;;
43552;SDS011;29153;42.696;23.218;2022-12-05T12:31:17;32.67;;;14.03;;
43552;SDS011;29153;42.696;23.218;2022-12-05T12:34:09;22.50;;;11.75;;
43552;SDS011;29153;42.696;23.218;2022-12-05T12:36:41;33.40;;;13.75;;
43552;SDS011;29153;42.696;23.218;2022-12-05T12:39:16;23.98;;;11.57;;
43552;SDS011;29153;42.696;23.218;2022-12-05T12:47:37;41.92;;;20.23;;
43552;SDS011;29153;42.696;23.218;2022-12-05T12:50:08;35.98;;;14.98;;
43552;SDS011;29153;42.696;23.218;2022-12-05T12:52:45;31.07;;;15.10;;
43552;SDS011;29153;42.696;23.218;2022-12-05T12:55:41;31.10;;;12.88;;
43552;SDS011;29153;42.696;23.218;2022-12-05T13:04:06;34.00;;;18.42;;
43552;SDS011;29153;42.696;23.218;2022-12-05T13:06:49;30.80;;;14.93;;
43552;SDS011;29153;42.696;23.218;2022-12-05T13:11:54;20.95;;;10.88;;
43552;SDS011;29153;42.696;23.218;2022-12-05T13:14:25;19.20;;;9.90;;
43552;SDS011;29153;42.696;23.218;2022-12-05T13:16:54;24.40;;;11.63;;
43552;SDS011;29153;42.696;23.218;2022-12-05T13:19:30;21.80;;;9.80;;
43552;SDS011;29153;42.696;23.218;2022-12-05T13:22:02;21.97;;;10.25;;
43552;SDS011;29153;42.696;23.218;2022-12-05T13:24:31;54.98;;;25.52;;
43552;SDS011;29153;42.696;23.218;2022-12-05T13:26:59;39.70;;;19.85;;
43552;SDS011;29153;42.696;23.218;2022-12-05T13:29:39;29.40;;;15.40;;
43552;SDS011;29153;42.696;23.218;2022-12-05T13:32:03;33.80;;;16.02;;
43552;SDS011;29153;42.696;23.218;2022-12-05T13:34:39;46.70;;;23.12;;
43552;SDS011;29153;42.696;23.218;2022-12-05T13:37:20;119.00;;;49.55;;
43552;SDS011;29153;42.696;23.218;2022-12-05T13:40:03;120.92;;;49.35;;
43552;SDS011;29153;42.696;23.218;2022-12-05T13:42:58;43.92;;;21.10;;
43552;SDS011;29153;42.696;23.218;2022-12-05T13:45:28;42.17;;;19.30;;
43552;SDS011;29153;42.696;23.218;2022-12-05T13:50:40;35.90;;;17.30;;
43552;SDS011;29153;42.696;23.218;2022-12-05T13:56:45;30.52;;;15.15;;
43552;SDS011;29153;42.696;23.218;2022-12-05T14:04:01;29.35;;;14.38;;
43552;SDS011;29153;42.696;23.218;2022-12-05T14:17:35;25.75;;;12.47;;
43552;SDS011;29153;42.696;23.218;2022-12-05T14:20:21;30.92;;;14.28;;
43552;SDS011;29153;42.696;23.218;2022-12-05T14:23:11;28.25;;;14.03;;
43552;SDS011;29153;42.696;23.218;2022-12-05T14:28:37;56.68;;;22.22;;
43552;SDS011;29153;42.696;23.218;2022-12-05T14:31:31;37.65;;;16.50;;
43552;SDS011;29153;42.696;23.218;2022-12-05T14:34:15;33.75;;;15.95;;
43552;SDS011;29153;42.696;23.218;2022-12-05T14:36:56;31.90;;;14.33;;
43552;SDS011;29153;42.696;23.218;2022-12-05T14:42:51;29.95;;;11.90;;
43552;SDS011;29153;42.696;23.218;2022-12-05T14:44:48;28.30;;;13.88;;
43552;SDS011;29153;42.696;23.218;2022-12-05T14:47:24;29.42;;;13.20;;
43552;SDS011;29153;42.696;23.218;2022-12-05T14:49:51;29.90;;;12.95;;
43552;SDS011;29153;42.696;23.218;2022-12-05T14:52:24;26.23;;;13.95;;
43552;SDS011;29153;42.696;23.218;2022-12-05T14:54:59;27.35;;;11.95;;
43552;SDS011;29153;42.696;23.218;2022-12-05T14:57:26;30.02;;;13.18;;
43552;SDS011;29153;42.696;23.218;2022-12-05T14:59:57;25.27;;;11.75;;
43552;SDS011;29153;42.696;23.218;2022-12-05T15:02:30;28.98;;;12.20;;
43552;SDS011;29153;42.696;23.218;2022-12-05T15:07:48;32.20;;;15.68;;
43552;SDS011;29153;42.696;23.218;2022-12-05T15:10:22;35.05;;;15.08;;
43552;SDS011;29153;42.696;23.218;2022-12-05T15:12:57;39.08;;;16.82;;
43552;SDS011;29153;42.696;23.218;2022-12-05T15:15:32;32.10;;;16.52;;
43552;SDS011;29153;42.696;23.218;2022-12-05T15:18:23;30.57;;;14.80;;
43552;SDS011;29153;42.696;23.218;2022-12-05T15:20:52;27.40;;;13.35;;
43552;SDS011;29153;42.696;23.218;2022-12-05T15:29:07;34.40;;;15.85;;
43552;SDS011;29153;42.696;23.218;2022-12-05T15:31:43;31.15;;;15.15;;
43552;SDS011;29153;42.696;23.218;2022-12-05T15:42:27;35.83;;;17.57;;
43552;SDS011;29153;42.696;23.218;2022-12-05T15:44:53;32.53;;;14.33;;
43552;SDS011;29153;42.696;23.218;2022-12-05T15:47:42;35.48;;;17.95;;
43552;SDS011;29153;42.696;23.218;2022-12-05T15:53:02;34.03;;;14.05;;
43552;SDS011;29153;42.696;23.218;2022-12-05T16:00:35;39.15;;;20.70;;
43552;SDS011;29153;42.696;23.218;2022-12-05T16:03:08;33.30;;;14.70;;
43552;SDS011;29153;42.696;23.218;2022-12-05T16:05:51;33.02;;;15.43;;
43552;SDS011;29153;42.696;23.218;2022-12-05T16:08:25;33.45;;;16.45;;
43552;SDS011;29153;42.696;23.218;2022-12-05T16:10:57;39.78;;;20.08;;
43552;SDS011;29153;42.696;23.218;2022-12-05T16:13:28;35.30;;;16.70;;
43552;SDS011;29153;42.696;23.218;2022-12-05T16:15:55;43.38;;;22.15;;
43552;SDS011;29153;42.696;23.218;2022-12-05T16:18:25;43.83;;;16.95;;
43552;SDS011;29153;42.696;23.218;2022-12-05T16:20:57;34.50;;;13.58;;
43552;SDS011;29153;42.696;23.218;2022-12-05T16:23:26;34.15;;;16.32;;
43552;SDS011;29153;42.696;23.218;2022-12-05T16:26:17;33.33;;;14.83;;
43552;SDS011;29153;42.696;23.218;2022-12-05T16:31:23;32.42;;;14.90;;
43552;SDS011;29153;42.696;23.218;2022-12-05T16:34:00;31.87;;;14.13;;
43552;SDS011;29153;42.696;23.218;2022-12-05T16:36:30;29.12;;;12.78;;
43552;SDS011;29153;42.696;23.218;2022-12-05T16:39:02;33.33;;;15.90;;
43552;SDS011;29153;42.696;23.218;2022-12-05T16:41:32;36.58;;;16.37;;
43552;SDS011;29153;42.696;23.218;2022-12-05T16:44:05;30.10;;;13.38;;
43552;SDS011;29153;42.696;23.218;2022-12-05T16:46:56;30.82;;;13.68;;
43552;SDS011;29153;42.696;23.218;2022-12-05T16:52:01;31.00;;;14.83;;
43552;SDS011;29153;42.696;23.218;2022-12-05T16:54:30;35.38;;;14.45;;
43552;SDS011;29153;42.696;23.218;2022-12-05T16:56:58;29.00;;;13.72;;
43552;SDS011;29153;42.696;23.218;2022-12-05T17:02:01;65.62;;;24.23;;
43552;SDS011;29153;42.696;23.218;2022-12-05T17:04:30;46.37;;;20.23;;
43552;SDS011;29153;42.696;23.218;2022-12-05T17:06:58;40.60;;;18.90;;
43552;SDS011;29153;42.696;23.218;2022-12-05T17:09:25;54.10;;;23.98;;
43552;SDS011;29153;42.696;23.218;2022-12-05T17:11:54;44.73;;;21.68;;
43552;SDS011;29153;42.696;23.218;2022-12-05T17:14:26;34.30;;;16.62;;
43552;SDS011;29153;42.696;23.218;2022-12-05T17:16:54;58.55;;;31.90;;
43552;SDS011;29153;42.696;23.218;2022-12-05T17:19:21;40.88;;;21.30;;
43552;SDS011;29153;42.696;23.218;2022-12-05T17:21:49;31.00;;;14.35;;
43552;SDS011;29153;42.696;23.218;2022-12-05T17:24:17;29.55;;;13.58;;
43552;SDS011;29153;42.696;23.218;2022-12-05T17:26:45;29.80;;;14.35;;
43552;SDS011;29153;42.696;23.218;2022-12-05T17:29:12;30.85;;;14.70;;
43552;SDS011;29153;42.696;23.218;2022-12-05T17:31:40;29.15;;;13.50;;
43552;SDS011;29153;42.696;23.218;2022-12-05T17:34:11;30.68;;;14.58;;
43552;SDS011;29153;42.696;23.218;2022-12-05T17:36:41;34.33;;;18.25;;
43552;SDS011;29153;42.696;23.218;2022-12-05T17:41:37;33.53;;;15.15;;